Norway, IA (52318)

3:02 PM CST on January 26, 2015 (GMT -0600)
Ridgeview Estates | Change Station
CLOSE
Current Station
Personal Weather Station
Location: Atkins, IA
Elevation: 860 ft
Nearby Weather Stations

Elev 860 ft 41.99 °N, 91.85 °W | Updated 31 seconds ago

Overcast
Overcast
39.7 °F
Feels Like 37 °F
N
4.0
Wind Variable Wind from WSW
Gusts 5.8 mph

Today
High -- | Low -- °F
--% Chance of Precip.
Yesterday
High -- | Low -- °F
Precip. -- in
7:25 AM 5:14 PM
Waxing Crescent, 46% visible
Pressure 29.81 in
Visibility 9.0 miles
Clouds Overcast 1900 ft
Windchill 37 °F
Dew Point 35 °F
Humidity 82%
Rainfall 0.00 in
Snow Depth Not available.
UV 0 out of 12
Pollen .10 out of 12
Air Quality Not available.
Flu Activity Not available.
METAR KCID 262052Z 23004KT 9SM OVC019 02/01 A2977 RMK AO2 SLP093 T00220006 55009

More Conditions Fewer Conditions

Pressure 29.81 in
Visibility 9.0 miles
Clouds Overcast 1900 ft
Windchill 37 °F
Dew Point 35 °F
Humidity 82%
Rainfall 0.00 in
Snow Depth Not available.
UV 0 out of 12
Pollen .10 out of 12
Air Quality Not available.
Flu Activity Not available.
METAR KCID 262052Z 23004KT 9SM OVC019 02/01 A2977 RMK AO2 SLP093 T00220006 55009

More Conditions Fewer Conditions

10-Day Weather Forecast

Almanac

Astronomy

Jan. 26, 2015 Rise Set
Actual Time
Civil Twilight
Nautical Twilight
Astronomical Twilight
Moon
Length of Visible Light
Length of Day
Tomorrow will be .
, % of the Moon is Illuminated

Today's Extremes

State Highs State Lows

Community

WunderPhotos

Upload Photos

1,790,361 photos uploaded!

WunderBlogs® & News

Nearby

Air Quality

  Air Quality AQ Index Pollutant
Not available.

Snow Depth

Station Depth Elevation

Earthquake Activity

City Distance Mag. Time & Date
Minimum magnitude displayed is 2.5.

Coastal Water Temperatures

Place Temperature

Nearby Weather Stations